Adah, PA (15410)

5:58 AM EST on February 11, 2016 (GMT -0500)
APRSWXNET | | Change Station
CLOSE
Current Station
Personal Weather Station
Location: Isabella, PA
Elevation: 1122 ft
Nearby Weather Stations

Elev 1122 ft 39.93 °N, 79.95 °W | Updated 32 minutes ago

Overcast
Overcast
12 °F
Feels Like 12 °F
N
1
Wind Variable Wind from SW
Gusts 7.0 mph

Today
High -- | Low -- °F
--% Chance of Precip.
Yesterday
High -- | Low -- °F
Precip. -- in
Pressure 30.12 in
Visibility 8.0 miles
Clouds Overcast 2600 ft
Windchill 12 °F
Dew Point 6 °F
Humidity 78%
Rainfall in
Snow Depth Not available.
7:17 AM 5:50 PM
Waxing Crescent, 11% visible
METAR KMGW 111053Z AUTO 22007KT 8SM OVC026 M11/M16 A3005 RMK AO2 SNB07E17 SLP199 P0000 T11111161 TSNO
Pressure 30.12 in
Visibility 8.0 miles
Clouds Overcast 2600 ft
Windchill 12 °F
Dew Point 6 °F
Humidity 78%
Rainfall in
Snow Depth Not available.
7:17 AM 5:50 PM
Waxing Crescent, 11% visible
METAR KMGW 111053Z AUTO 22007KT 8SM OVC026 M11/M16 A3005 RMK AO2 SNB07E17 SLP199 P0000 T11111161 TSNO

10-Day Weather Forecast

Almanac

Astronomy

Feb. 11, 2016 Rise Set
Actual Time
Civil Twilight
Nautical Twilight
Astronomical Twilight
Moon
Length of Visible Light
Length of Day
Tomorrow will be .
, % of the Moon is Illuminated

Today's Extremes

State Highs State Lows

Community

WunderPhotos

Upload Photos

1,892,030 photos uploaded!

WunderBlog® & News

Nearby

Air Quality

  Air Quality AQ Index Pollutant
Not available.

Snow Depth

Station Depth Elevation

Earthquake Activity

City Distance Mag. Time & Date
Minimum magnitude displayed is 2.5.

Coastal Water Temperatures

Place Temperature

Stations

Nearby Weather Stations

Station Location Temp. Windchill Dew Point Humidity Wind Precip. Elev Updated Type
                   

Watches & Warnings

There are currently no watches in effect.